createdAt,value
2017-11-09T00:01:20.084Z,101.03
2017-11-09T00:03:53.820Z,99.73
2017-11-09T00:06:22.576Z,95.90
2017-11-09T00:08:51.725Z,95.00
2017-11-09T00:11:20.361Z,89.57
2017-11-09T00:13:49.510Z,106.53
2017-11-09T00:16:18.577Z,101.70
2017-11-09T00:18:47.680Z,102.87
2017-11-09T00:21:16.943Z,96.33
2017-11-09T00:23:46.251Z,111.70
2017-11-09T00:26:14.611Z,107.33
2017-11-09T00:28:43.092Z,98.80
2017-11-09T00:31:12.368Z,104.90
2017-11-09T00:33:40.903Z,115.13
2017-11-09T00:36:09.320Z,102.27
2017-11-09T00:38:37.674Z,93.67
2017-11-09T00:41:06.830Z,103.17
2017-11-09T00:43:35.392Z,98.77
2017-11-09T00:46:05.257Z,104.43
2017-11-09T00:48:33.608Z,108.40
2017-11-09T00:51:01.979Z,104.43
2017-11-09T00:53:31.147Z,112.80
2017-11-09T00:56:00.126Z,109.03
2017-11-09T00:58:29.779Z,95.30
2017-11-09T01:00:58.171Z,106.73
2017-11-09T01:03:26.573Z,103.47
2017-11-09T01:05:55.532Z,105.63
2017-11-09T01:08:24.513Z,108.63
2017-11-09T01:10:52.872Z,116.70
2017-11-09T01:13:21.969Z,106.30
2017-11-09T01:15:51.919Z,100.27
2017-11-09T01:18:20.504Z,108.20
2017-11-09T01:20:49.631Z,99.10
2017-11-09T01:23:17.978Z,109.03
2017-11-09T01:25:47.155Z,102.97
2017-11-09T01:28:15.700Z,112.23
2017-11-09T01:30:44.068Z,107.73
2017-11-09T01:33:15.929Z,103.10
2017-11-09T01:35:44.315Z,99.47
2017-11-09T01:38:12.881Z,109.13
2017-11-09T01:40:41.229Z,109.63
2017-11-09T01:43:09.829Z,99.13
2017-11-09T01:45:39.887Z,103.90
2017-11-09T01:48:08.235Z,96.67
2017-11-09T01:50:37.606Z,110.57
2017-11-09T01:53:05.968Z,99.13
2017-11-09T01:55:36.385Z,95.80
2017-11-09T01:58:04.764Z,113.20
2017-11-09T02:00:33.892Z,104.67
2017-11-09T02:03:02.252Z,96.40
2017-11-09T02:05:30.962Z,100.33
2017-11-09T02:07:59.303Z,108.43
2017-11-09T02:10:27.648Z,101.77
2017-11-09T02:12:57.551Z,100.13
2017-11-09T02:15:25.911Z,99.07
2017-11-09T02:17:56.184Z,99.33
2017-11-09T02:20:24.579Z,105.23
2017-11-09T02:22:54.386Z,103.97
2017-11-09T02:25:22.742Z,100.10
2017-11-09T02:27:51.925Z,100.90
2017-11-09T02:30:20.492Z,100.83
2017-11-09T02:32:49.065Z,94.23
2017-11-09T02:35:17.501Z,107.10
2017-11-09T02:37:45.859Z,96.63
2017-11-09T02:40:15.087Z,97.80
2017-11-09T02:42:44.264Z,106.03
2017-11-09T02:45:12.605Z,101.50
2017-11-09T02:47:40.955Z,96.93
2017-11-09T02:50:11.990Z,103.53
2017-11-09T02:52:40.370Z,110.50
2017-11-09T02:55:09.522Z,103.03
2017-11-09T02:57:38.076Z,108.90
2017-11-09T03:00:06.430Z,99.93
2017-11-09T03:02:36.718Z,101.10
2017-11-09T03:05:05.087Z,98.70
2017-11-09T03:07:33.463Z,95.67
2017-11-09T03:10:01.875Z,99.87
2017-11-09T03:12:30.307Z,101.20
2017-11-09T03:14:58.661Z,104.43
2017-11-09T03:17:28.333Z,100.67
2017-11-09T03:19:57.987Z,95.77
2017-11-09T03:22:26.336Z,99.30
2017-11-09T03:24:54.693Z,97.80
2017-11-09T03:27:23.070Z,94.33
2017-11-09T03:29:51.424Z,102.63
2017-11-09T03:32:19.773Z,97.37
2017-11-09T03:34:49.464Z,100.60
2017-11-09T03:37:19.276Z,95.93
2017-11-09T03:39:50.415Z,97.10
2017-11-09T03:42:18.791Z,111.80
2017-11-09T03:44:47.174Z,101.77
2017-11-09T03:47:15.561Z,98.90
2017-11-09T03:49:44.666Z,100.17
2017-11-09T03:52:14.669Z,95.40
2017-11-09T03:54:43.284Z,99.20
2017-11-09T03:57:12.483Z,100.77
2017-11-09T03:59:41.589Z,101.10
2017-11-09T04:02:11.155Z,93.90
2017-11-09T04:04:40.115Z,94.40
2017-11-09T04:07:08.551Z,104.53
2017-11-09T04:09:38.388Z,95.67
2017-11-09T04:12:06.755Z,97.43
2017-11-09T04:14:37.805Z,99.77
2017-11-09T04:17:07.159Z,93.97
2017-11-09T04:19:35.509Z,104.37
2017-11-09T04:22:03.866Z,105.83
2017-11-09T04:24:33.603Z,101.87
2017-11-09T04:27:01.955Z,91.13
2017-11-09T04:29:30.302Z,111.00
2017-11-09T04:31:58.671Z,93.17
2017-11-09T04:34:27.015Z,97.43
2017-11-09T04:36:55.402Z,92.10
2017-11-09T04:39:23.785Z,108.27
2017-11-09T04:41:52.140Z,99.43
2017-11-09T04:44:20.489Z,96.57
2017-11-09T04:46:49.700Z,98.87
2017-11-09T04:49:19.620Z,100.70
2017-11-09T04:51:47.953Z,99.33
2017-11-09T04:54:16.325Z,96.93
2017-11-09T04:56:45.584Z,104.67
2017-11-09T04:59:13.914Z,108.47
2017-11-09T05:01:44.237Z,92.57
2017-11-09T05:04:13.361Z,105.63
2017-11-09T05:06:42.489Z,95.00
2017-11-09T05:09:11.728Z,100.97
2017-11-09T05:11:40.083Z,93.03
2017-11-09T05:14:09.337Z,89.93
2017-11-09T05:16:38.168Z,102.33
2017-11-09T05:19:06.745Z,96.67
2017-11-09T05:21:35.097Z,101.07
2017-11-09T05:24:04.217Z,108.33
2017-11-09T05:26:32.558Z,101.27
2017-11-09T05:29:02.295Z,105.78
2017-11-09T05:31:31.407Z,104.83
2017-11-09T05:34:00.715Z,94.28
2017-11-09T05:36:29.058Z,108.83
2017-11-09T05:38:59.131Z,106.33
2017-11-09T05:41:27.590Z,106.13
2017-11-09T05:43:56.022Z,112.00
2017-11-09T05:46:24.416Z,101.10
2017-11-09T05:48:53.527Z,98.65
2017-11-09T05:51:21.889Z,113.00
2017-11-09T05:53:50.313Z,100.13
2017-11-09T05:56:18.646Z,106.10
2017-11-09T05:58:46.982Z,98.63
2017-11-09T06:01:15.366Z,116.43
2017-11-09T06:03:43.718Z,99.77
2017-11-09T06:06:12.071Z,108.80
2017-11-09T06:08:41.657Z,116.20
2017-11-09T06:11:09.995Z,115.88
2017-11-09T06:13:38.339Z,110.80
2017-11-09T06:16:07.030Z,107.17
2017-11-09T06:18:36.204Z,131.20
2017-11-09T06:21:05.411Z,112.75
2017-11-09T06:23:34.650Z,108.82
2017-11-09T06:26:03.278Z,124.95
2017-11-09T06:28:31.734Z,111.75
2017-11-09T06:31:00.233Z,113.83
2017-11-09T06:33:29.479Z,118.32
2017-11-09T06:35:58.321Z,107.93
2017-11-09T06:38:26.916Z,112.18
2017-11-09T06:40:56.046Z,120.00
2017-11-09T06:43:24.492Z,112.40
2017-11-09T06:45:52.909Z,125.63
2017-11-09T06:48:21.298Z,111.18
2017-11-09T06:50:49.802Z,103.35
2017-11-09T06:53:19.247Z,120.95
2017-11-09T06:55:48.546Z,128.13
2017-11-09T06:58:16.960Z,122.43
2017-11-09T07:00:45.734Z,117.73
2017-11-09T07:03:14.175Z,106.77
2017-11-09T07:05:42.538Z,127.43
2017-11-09T07:08:10.925Z,120.60
2017-11-09T07:10:39.336Z,105.47
2017-11-09T07:13:08.494Z,115.87
2017-11-09T07:15:37.630Z,106.47
2017-11-09T07:18:06.162Z,112.82
2017-11-09T07:20:35.453Z,128.90
2017-11-09T07:23:04.913Z,117.73
2017-11-09T07:25:33.298Z,123.22
2017-11-09T07:28:02.463Z,112.23
2017-11-09T07:30:30.996Z,121.50
2017-11-09T07:32:59.433Z,120.93
2017-11-09T07:35:28.751Z,123.57
2017-11-09T07:37:57.549Z,126.50
2017-11-09T07:40:26.697Z,132.07
2017-11-09T07:42:55.094Z,118.17
2017-11-09T07:45:23.678Z,119.33
2017-11-09T07:47:52.108Z,115.33
2017-11-09T07:50:20.564Z,121.17
2017-11-09T07:52:49.317Z,117.83
2017-11-09T07:55:17.796Z,118.00
2017-11-09T07:57:47.136Z,114.50
2017-11-09T08:00:16.107Z,119.97
2017-11-09T08:02:44.523Z,137.40
2017-11-09T08:05:14.019Z,123.13
2017-11-09T08:07:42.551Z,118.83
2017-11-09T08:10:10.883Z,111.77
2017-11-09T08:12:39.249Z,123.43
2017-11-09T08:15:07.626Z,121.80
2017-11-09T08:17:35.969Z,130.70
2017-11-09T08:20:06.002Z,115.73
2017-11-09T08:22:34.394Z,118.30
2017-11-09T08:25:06.687Z,116.27
2017-11-09T08:27:42.110Z,125.60
2017-11-09T08:30:13.451Z,118.40
2017-11-09T08:32:49.372Z,132.27
2017-11-09T08:35:17.728Z,124.53
2017-11-09T08:37:46.780Z,129.40
2017-11-09T08:40:15.154Z,133.00
2017-11-09T08:42:43.502Z,126.97
2017-11-09T08:45:12.275Z,110.17
2017-11-09T08:47:41.430Z,118.37
2017-11-09T08:50:09.772Z,112.07
2017-11-09T08:52:38.282Z,108.27
2017-11-09T08:55:06.781Z,121.60
2017-11-09T08:57:35.234Z,115.30
2017-11-09T09:00:03.592Z,129.13
2017-11-09T09:02:31.997Z,116.17
2017-11-09T09:05:00.340Z,111.33
2017-11-09T09:07:28.712Z,118.53
2017-11-09T09:09:57.918Z,118.00
2017-11-09T09:12:26.267Z,123.67
2017-11-09T09:14:56.215Z,121.90
2017-11-09T09:17:26.258Z,116.77
2017-11-09T09:19:55.227Z,126.30
2017-11-09T09:22:42.274Z,124.60
2017-11-09T09:25:21.222Z,122.07
2017-11-09T09:27:51.203Z,126.43
2017-11-09T09:30:33.695Z,120.97
2017-11-09T09:33:09.024Z,123.77
2017-11-09T09:35:41.876Z,131.80
2017-11-09T18:52:42.274Z,110.80
2017-11-09T18:55:10.769Z,120.70
2017-11-09T18:57:41.649Z,125.83
2017-11-09T19:00:10.579Z,125.23
2017-11-09T19:02:38.960Z,127.10
2017-11-09T19:05:07.356Z,128.67
2017-11-09T19:07:37.366Z,133.50
2017-11-09T19:10:06.555Z,112.83
2017-11-09T19:12:35.138Z,115.50
2017-11-09T19:15:03.676Z,122.57
2017-11-09T19:17:32.268Z,120.50
2017-11-09T19:20:01.568Z,118.30
2017-11-09T19:22:29.958Z,109.83
2017-11-09T19:24:58.320Z,118.13
2017-11-09T19:27:26.808Z,121.43
2017-11-09T19:29:55.424Z,118.33
2017-11-09T19:32:24.578Z,116.13
2017-11-09T19:34:52.926Z,118.70
2017-11-09T19:37:21.516Z,128.50
2017-11-09T19:39:51.340Z,116.67
2017-11-09T19:42:19.700Z,120.33
2017-11-09T19:44:48.945Z,128.50
2017-11-09T19:47:17.279Z,126.20
2017-11-09T19:49:46.407Z,135.33
2017-11-09T19:52:14.799Z,108.90
2017-11-09T19:54:43.975Z,121.67
2017-11-09T19:57:13.054Z,124.27
2017-11-09T19:59:42.316Z,135.00
2017-11-09T20:02:13.349Z,125.67
2017-11-09T20:04:41.722Z,124.23
2017-11-09T20:07:10.586Z,131.70
2017-11-09T20:09:38.964Z,123.47
2017-11-09T20:12:07.397Z,132.97
2017-11-09T20:14:35.790Z,122.37
2017-11-09T20:17:04.645Z,113.80
2017-11-09T20:19:35.007Z,124.70
2017-11-09T20:22:03.571Z,125.37
2017-11-09T20:24:32.268Z,128.43
2017-11-09T20:27:00.628Z,122.80
2017-11-09T20:29:29.987Z,126.53
2017-11-09T20:31:58.400Z,118.00
2017-11-09T20:34:26.772Z,125.23
2017-11-09T20:36:55.163Z,120.27
2017-11-09T20:39:24.295Z,126.10
2017-11-09T20:41:53.078Z,119.27
2017-11-09T20:44:23.259Z,126.63
2017-11-09T20:46:51.646Z,117.47
2017-11-09T20:49:19.998Z,114.50
2017-11-09T20:51:48.428Z,123.93
2017-11-09T20:54:17.187Z,123.63
2017-11-09T20:56:45.783Z,119.43
2017-11-09T20:59:14.174Z,108.07
2017-11-09T21:01:42.519Z,112.90
2017-11-09T21:04:10.899Z,110.87
2017-11-09T21:06:39.326Z,111.50
2017-11-09T21:09:07.678Z,119.13
2017-11-09T21:11:36.982Z,128.67
2017-11-09T21:14:05.861Z,121.83
2017-11-09T21:16:35.556Z,123.93
2017-11-09T21:19:03.929Z,118.47
2017-11-09T21:21:32.308Z,113.80
2017-11-09T21:24:00.959Z,112.70
2017-11-09T21:26:30.549Z,118.47
2017-11-09T21:28:59.911Z,112.17
2017-11-09T21:31:28.259Z,119.20
2017-11-09T21:33:57.381Z,126.83
2017-11-09T21:36:25.758Z,121.93
2017-11-09T21:38:54.325Z,116.07
2017-11-09T21:41:23.432Z,123.33
2017-11-09T21:43:53.390Z,114.73
2017-11-09T21:46:21.745Z,121.23
2017-11-09T21:48:50.742Z,126.40
2017-11-09T21:51:19.341Z,111.33
2017-11-09T21:53:48.405Z,113.20
2017-11-09T21:56:16.792Z,104.70
2017-11-09T21:58:45.781Z,98.47
2017-11-09T22:01:14.135Z,105.77
2017-11-09T22:03:43.262Z,102.10
2017-11-09T22:06:12.345Z,98.17
2017-11-09T22:08:40.950Z,105.17
2017-11-09T22:11:09.323Z,108.53
2017-11-09T22:13:37.756Z,96.33
2017-11-09T22:16:06.120Z,108.77
2017-11-09T22:18:34.493Z,104.10
2017-11-09T22:21:02.916Z,108.90
2017-11-09T22:23:32.107Z,101.17
2017-11-09T22:26:01.234Z,107.17
2017-11-09T22:28:29.620Z,101.90
2017-11-09T22:30:58.909Z,110.03
2017-11-09T22:33:28.031Z,112.80
2017-11-09T22:35:56.624Z,112.63
2017-11-09T22:38:25.795Z,120.03
2017-11-09T22:40:54.149Z,108.87
2017-11-09T22:43:23.300Z,128.17
2017-11-09T22:45:51.651Z,119.17
2017-11-09T22:48:21.386Z,112.57
2017-11-09T22:50:50.468Z,104.37
2017-11-09T22:53:20.506Z,103.33
2017-11-09T22:55:49.660Z,107.37
2017-11-09T22:58:18.106Z,109.37
2017-11-09T23:00:46.484Z,104.33
2017-11-09T23:03:15.789Z,115.50
2017-11-09T23:05:44.155Z,100.80
2017-11-09T23:08:13.348Z,109.33
2017-11-09T23:10:43.224Z,110.40
2017-11-09T23:13:11.595Z,121.93
2017-11-09T23:15:39.954Z,116.43
2017-11-09T23:18:08.980Z,115.43
2017-11-09T23:20:38.442Z,115.40
2017-11-09T23:23:07.414Z,110.20
2017-11-09T23:25:35.759Z,114.00
2017-11-09T23:28:04.138Z,108.53
2017-11-09T23:30:32.483Z,116.77
2017-11-09T23:33:01.123Z,112.17
2017-11-09T23:35:30.040Z,104.90
2017-11-09T23:37:58.430Z,102.87
2017-11-09T23:40:26.780Z,86.27
2017-11-09T23:42:56.526Z,99.60
2017-11-09T23:45:26.563Z,97.60
2017-11-09T23:47:55.986Z,87.23
2017-11-09T23:50:24.984Z,101.97
2017-11-09T23:52:54.436Z,87.23
2017-11-09T23:55:23.078Z,87.57
2017-11-09T23:57:51.764Z,94.30
